sensor_id;sensor_type;location;lat;lon;timestamp;P1;durP1;ratioP1;P2;durP2;ratioP2
71869;SDS011;59739;47.696;11.746;2024-02-14T00:00:20;1.08;;;0.80;;
71869;SDS011;59739;47.696;11.746;2024-02-14T00:02:47;1.45;;;0.88;;
71869;SDS011;59739;47.696;11.746;2024-02-14T00:05:14;2.00;;;1.10;;
71869;SDS011;59739;47.696;11.746;2024-02-14T00:07:41;1.98;;;0.90;;
71869;SDS011;59739;47.696;11.746;2024-02-14T00:10:07;1.40;;;0.90;;
71869;SDS011;59739;47.696;11.746;2024-02-14T00:12:33;1.38;;;0.90;;
71869;SDS011;59739;47.696;11.746;2024-02-14T00:15:01;2.17;;;1.30;;
71869;SDS011;59739;47.696;11.746;2024-02-14T00:17:28;1.00;;;0.80;;
71869;SDS011;59739;47.696;11.746;2024-02-14T00:19:54;1.33;;;1.23;;
71869;SDS011;59739;47.696;11.746;2024-02-14T00:22:21;1.77;;;0.90;;
71869;SDS011;59739;47.696;11.746;2024-02-14T00:24:46;1.35;;;1.00;;
71869;SDS011;59739;47.696;11.746;2024-02-14T00:27:12;2.53;;;1.40;;
71869;SDS011;59739;47.696;11.746;2024-02-14T00:29:39;2.65;;;1.05;;
71869;SDS011;59739;47.696;11.746;2024-02-14T00:32:06;0.70;;;0.70;;
71869;SDS011;59739;47.696;11.746;2024-02-14T00:34:32;1.48;;;1.00;;
71869;SDS011;59739;47.696;11.746;2024-02-14T00:36:58;1.95;;;0.90;;
71869;SDS011;59739;47.696;11.746;2024-02-14T00:39:24;1.13;;;0.95;;
71869;SDS011;59739;47.696;11.746;2024-02-14T00:41:50;1.58;;;1.00;;
71869;SDS011;59739;47.696;11.746;2024-02-14T00:44:18;1.80;;;1.35;;
71869;SDS011;59739;47.696;11.746;2024-02-14T00:46:44;0.93;;;0.73;;
71869;SDS011;59739;47.696;11.746;2024-02-14T00:49:10;1.00;;;0.82;;
71869;SDS011;59739;47.696;11.746;2024-02-14T00:51:38;3.42;;;0.95;;
71869;SDS011;59739;47.696;11.746;2024-02-14T00:54:05;1.00;;;0.90;;
71869;SDS011;59739;47.696;11.746;2024-02-14T00:56:32;1.10;;;0.93;;
71869;SDS011;59739;47.696;11.746;2024-02-14T00:58:58;1.10;;;1.00;;
71869;SDS011;59739;47.696;11.746;2024-02-14T01:01:24;1.27;;;0.90;;
71869;SDS011;59739;47.696;11.746;2024-02-14T01:03:50;1.00;;;0.90;;
71869;SDS011;59739;47.696;11.746;2024-02-14T01:06:16;2.33;;;1.30;;
71869;SDS011;59739;47.696;11.746;2024-02-14T01:08:43;2.05;;;1.20;;
71869;SDS011;59739;47.696;11.746;2024-02-14T01:11:09;1.60;;;0.90;;
71869;SDS011;59739;47.696;11.746;2024-02-14T01:13:36;1.63;;;0.98;;
71869;SDS011;59739;47.696;11.746;2024-02-14T01:16:02;1.90;;;1.17;;
71869;SDS011;59739;47.696;11.746;2024-02-14T01:18:29;1.48;;;0.80;;
71869;SDS011;59739;47.696;11.746;2024-02-14T01:20:56;1.77;;;0.80;;
71869;SDS011;59739;47.696;11.746;2024-02-14T01:23:24;1.90;;;0.88;;
71869;SDS011;59739;47.696;11.746;2024-02-14T01:25:50;4.05;;;1.15;;
71869;SDS011;59739;47.696;11.746;2024-02-14T01:28:16;0.90;;;0.90;;
71869;SDS011;59739;47.696;11.746;2024-02-14T01:30:42;1.25;;;1.15;;
71869;SDS011;59739;47.696;11.746;2024-02-14T01:33:08;1.08;;;0.98;;
71869;SDS011;59739;47.696;11.746;2024-02-14T01:35:34;1.08;;;0.80;;
71869;SDS011;59739;47.696;11.746;2024-02-14T01:38:00;0.95;;;0.85;;
71869;SDS011;59739;47.696;11.746;2024-02-14T01:40:28;2.78;;;1.10;;
71869;SDS011;59739;47.696;11.746;2024-02-14T01:42:54;0.90;;;0.80;;
71869;SDS011;59739;47.696;11.746;2024-02-14T01:45:20;1.10;;;0.93;;
71869;SDS011;59739;47.696;11.746;2024-02-14T01:47:47;3.22;;;1.00;;
71869;SDS011;59739;47.696;11.746;2024-02-14T01:50:15;1.77;;;1.08;;
71869;SDS011;59739;47.696;11.746;2024-02-14T01:52:43;1.33;;;1.10;;
71869;SDS011;59739;47.696;11.746;2024-02-14T01:55:10;1.60;;;0.90;;
71869;SDS011;59739;47.696;11.746;2024-02-14T01:57:38;1.40;;;0.90;;
71869;SDS011;59739;47.696;11.746;2024-02-14T02:00:06;1.80;;;0.82;;
71869;SDS011;59739;47.696;11.746;2024-02-14T02:02:43;1.13;;;0.90;;
71869;SDS011;59739;47.696;11.746;2024-02-14T02:05:14;2.45;;;1.23;;
71869;SDS011;59739;47.696;11.746;2024-02-14T02:07:41;1.40;;;1.17;;
71869;SDS011;59739;47.696;11.746;2024-02-14T02:10:12;1.60;;;1.20;;
71869;SDS011;59739;47.696;11.746;2024-02-14T02:12:38;1.00;;;0.90;;
71869;SDS011;59739;47.696;11.746;2024-02-14T02:15:06;1.15;;;0.90;;
71869;SDS011;59739;47.696;11.746;2024-02-14T02:17:38;1.23;;;0.90;;
71869;SDS011;59739;47.696;11.746;2024-02-14T02:20:05;2.35;;;1.05;;
71869;SDS011;59739;47.696;11.746;2024-02-14T02:22:33;1.45;;;0.73;;
71869;SDS011;59739;47.696;11.746;2024-02-14T02:25:03;0.93;;;0.80;;
71869;SDS011;59739;47.696;11.746;2024-02-14T02:27:33;1.40;;;1.00;;
71869;SDS011;59739;47.696;11.746;2024-02-14T02:30:03;2.78;;;1.13;;
71869;SDS011;59739;47.696;11.746;2024-02-14T02:32:31;1.65;;;0.90;;
71869;SDS011;59739;47.696;11.746;2024-02-14T02:34:57;0.70;;;0.70;;
71869;SDS011;59739;47.696;11.746;2024-02-14T02:37:24;1.67;;;0.80;;
71869;SDS011;59739;47.696;11.746;2024-02-14T02:39:51;3.33;;;1.52;;
71869;SDS011;59739;47.696;11.746;2024-02-14T02:42:17;2.78;;;1.20;;
71869;SDS011;59739;47.696;11.746;2024-02-14T02:44:46;1.17;;;1.00;;
71869;SDS011;59739;47.696;11.746;2024-02-14T02:47:13;1.45;;;1.00;;
71869;SDS011;59739;47.696;11.746;2024-02-14T02:49:42;1.98;;;0.90;;
71869;SDS011;59739;47.696;11.746;2024-02-14T02:52:12;2.03;;;0.88;;
71869;SDS011;59739;47.696;11.746;2024-02-14T02:54:38;1.10;;;1.00;;
71869;SDS011;59739;47.696;11.746;2024-02-14T02:57:09;1.20;;;1.00;;
71869;SDS011;59739;47.696;11.746;2024-02-14T02:59:37;1.85;;;1.08;;
71869;SDS011;59739;47.696;11.746;2024-02-14T03:02:08;0.80;;;0.80;;
71869;SDS011;59739;47.696;11.746;2024-02-14T03:04:36;1.92;;;1.02;;
71869;SDS011;59739;47.696;11.746;2024-02-14T03:07:03;1.00;;;0.90;;
71869;SDS011;59739;47.696;11.746;2024-02-14T03:09:32;1.95;;;1.00;;
71869;SDS011;59739;47.696;11.746;2024-02-14T03:12:04;2.30;;;1.08;;
71869;SDS011;59739;47.696;11.746;2024-02-14T03:14:30;1.10;;;1.00;;
71869;SDS011;59739;47.696;11.746;2024-02-14T03:17:01;1.10;;;0.90;;
71869;SDS011;59739;47.696;11.746;2024-02-14T03:19:28;1.10;;;0.90;;
71869;SDS011;59739;47.696;11.746;2024-02-14T03:21:55;1.23;;;1.10;;
71869;SDS011;59739;47.696;11.746;2024-02-14T03:24:21;2.67;;;1.10;;
71869;SDS011;59739;47.696;11.746;2024-02-14T03:26:50;2.20;;;1.15;;
71869;SDS011;59739;47.696;11.746;2024-02-14T03:29:19;1.27;;;1.10;;
71869;SDS011;59739;47.696;11.746;2024-02-14T03:31:46;2.75;;;1.20;;
71869;SDS011;59739;47.696;11.746;2024-02-14T03:34:12;1.92;;;1.00;;
71869;SDS011;59739;47.696;11.746;2024-02-14T03:36:39;1.55;;;0.98;;
71869;SDS011;59739;47.696;11.746;2024-02-14T03:39:05;1.20;;;1.10;;
71869;SDS011;59739;47.696;11.746;2024-02-14T03:41:31;1.35;;;0.88;;
71869;SDS011;59739;47.696;11.746;2024-02-14T03:43:58;0.82;;;0.80;;
71869;SDS011;59739;47.696;11.746;2024-02-14T03:46:28;1.27;;;0.90;;
71869;SDS011;59739;47.696;11.746;2024-02-14T03:48:55;2.67;;;0.93;;
71869;SDS011;59739;47.696;11.746;2024-02-14T03:51:24;1.55;;;0.90;;
71869;SDS011;59739;47.696;11.746;2024-02-14T03:53:50;3.22;;;1.33;;
71869;SDS011;59739;47.696;11.746;2024-02-14T03:56:16;0.90;;;0.85;;
71869;SDS011;59739;47.696;11.746;2024-02-14T03:58:42;1.00;;;0.82;;
71869;SDS011;59739;47.696;11.746;2024-02-14T04:01:08;1.23;;;0.85;;
71869;SDS011;59739;47.696;11.746;2024-02-14T04:03:34;2.65;;;1.20;;
71869;SDS011;59739;47.696;11.746;2024-02-14T04:06:01;2.17;;;1.02;;
71869;SDS011;59739;47.696;11.746;2024-02-14T04:08:27;1.08;;;0.80;;
71869;SDS011;59739;47.696;11.746;2024-02-14T04:10:54;1.05;;;0.95;;
71869;SDS011;59739;47.696;11.746;2024-02-14T04:13:21;2.92;;;0.90;;
71869;SDS011;59739;47.696;11.746;2024-02-14T04:15:47;1.52;;;0.93;;
71869;SDS011;59739;47.696;11.746;2024-02-14T04:18:13;1.48;;;0.77;;
71869;SDS011;59739;47.696;11.746;2024-02-14T04:20:40;1.25;;;0.80;;
71869;SDS011;59739;47.696;11.746;2024-02-14T04:23:06;7.75;;;3.65;;
71869;SDS011;59739;47.696;11.746;2024-02-14T04:25:33;22.27;;;9.60;;
71869;SDS011;59739;47.696;11.746;2024-02-14T04:28:00;33.55;;;15.73;;
71869;SDS011;59739;47.696;11.746;2024-02-14T04:30:27;24.73;;;11.57;;
71869;SDS011;59739;47.696;11.746;2024-02-14T04:32:53;8.23;;;4.10;;
71869;SDS011;59739;47.696;11.746;2024-02-14T04:35:22;4.18;;;2.25;;
71869;SDS011;59739;47.696;11.746;2024-02-14T04:37:48;2.17;;;1.25;;
71869;SDS011;59739;47.696;11.746;2024-02-14T04:40:14;1.75;;;1.08;;
71869;SDS011;59739;47.696;11.746;2024-02-14T04:42:41;1.20;;;1.00;;
71869;SDS011;59739;47.696;11.746;2024-02-14T04:45:07;0.70;;;0.70;;
71869;SDS011;59739;47.696;11.746;2024-02-14T04:47:33;2.40;;;0.93;;
71869;SDS011;59739;47.696;11.746;2024-02-14T04:49:59;1.35;;;1.00;;
71869;SDS011;59739;47.696;11.746;2024-02-14T04:52:28;1.10;;;0.80;;
71869;SDS011;59739;47.696;11.746;2024-02-14T04:54:55;1.55;;;0.70;;
71869;SDS011;59739;47.696;11.746;2024-02-14T04:57:21;0.93;;;0.90;;
71869;SDS011;59739;47.696;11.746;2024-02-14T04:59:48;1.33;;;0.80;;
71869;SDS011;59739;47.696;11.746;2024-02-14T05:02:14;0.68;;;0.68;;
71869;SDS011;59739;47.696;11.746;2024-02-14T05:04:40;1.70;;;1.00;;
71869;SDS011;59739;47.696;11.746;2024-02-14T05:07:06;1.23;;;0.75;;
71869;SDS011;59739;47.696;11.746;2024-02-14T05:09:32;2.05;;;1.17;;
71869;SDS011;59739;47.696;11.746;2024-02-14T05:11:58;1.20;;;1.10;;
71869;SDS011;59739;47.696;11.746;2024-02-14T05:14:24;1.40;;;0.88;;
71869;SDS011;59739;47.696;11.746;2024-02-14T05:16:51;1.75;;;1.60;;
71869;SDS011;59739;47.696;11.746;2024-02-14T05:19:16;2.05;;;1.10;;
71869;SDS011;59739;47.696;11.746;2024-02-14T05:21:42;1.98;;;1.42;;
71869;SDS011;59739;47.696;11.746;2024-02-14T05:24:08;1.17;;;0.98;;
71869;SDS011;59739;47.696;11.746;2024-02-14T05:26:34;1.75;;;1.30;;
71869;SDS011;59739;47.696;11.746;2024-02-14T05:29:00;1.40;;;0.93;;
71869;SDS011;59739;47.696;11.746;2024-02-14T05:31:28;1.73;;;1.08;;
71869;SDS011;59739;47.696;11.746;2024-02-14T05:34:09;2.40;;;1.05;;
71869;SDS011;59739;47.696;11.746;2024-02-14T05:36:35;2.28;;;1.20;;
71869;SDS011;59739;47.696;11.746;2024-02-14T05:39:02;1.10;;;1.00;;
71869;SDS011;59739;47.696;11.746;2024-02-14T05:41:28;1.45;;;1.02;;
71869;SDS011;59739;47.696;11.746;2024-02-14T05:43:55;1.40;;;1.10;;
71869;SDS011;59739;47.696;11.746;2024-02-14T05:46:21;1.20;;;0.82;;
71869;SDS011;59739;47.696;11.746;2024-02-14T05:48:47;2.60;;;1.13;;
71869;SDS011;59739;47.696;11.746;2024-02-14T05:51:13;2.10;;;1.23;;
71869;SDS011;59739;47.696;11.746;2024-02-14T05:53:39;1.40;;;0.93;;
71869;SDS011;59739;47.696;11.746;2024-02-14T05:56:05;1.15;;;0.90;;
71869;SDS011;59739;47.696;11.746;2024-02-14T05:58:31;1.85;;;1.05;;
71869;SDS011;59739;47.696;11.746;2024-02-14T06:00:57;1.52;;;1.13;;
71869;SDS011;59739;47.696;11.746;2024-02-14T06:03:23;1.10;;;0.95;;
71869;SDS011;59739;47.696;11.746;2024-02-14T06:05:49;1.13;;;0.95;;
71869;SDS011;59739;47.696;11.746;2024-02-14T06:08:15;1.60;;;1.00;;
71869;SDS011;59739;47.696;11.746;2024-02-14T06:10:41;1.20;;;1.00;;
71869;SDS011;59739;47.696;11.746;2024-02-14T06:13:07;2.33;;;1.02;;
71869;SDS011;59739;47.696;11.746;2024-02-14T06:15:33;1.40;;;1.20;;
71869;SDS011;59739;47.696;11.746;2024-02-14T06:17:59;1.77;;;1.10;;
71869;SDS011;59739;47.696;11.746;2024-02-14T06:20:25;2.20;;;1.10;;
71869;SDS011;59739;47.696;11.746;2024-02-14T06:22:51;1.95;;;1.40;;
71869;SDS011;59739;47.696;11.746;2024-02-14T06:25:17;1.52;;;1.27;;
71869;SDS011;59739;47.696;11.746;2024-02-14T06:27:43;1.48;;;1.20;;
71869;SDS011;59739;47.696;11.746;2024-02-14T06:30:09;1.52;;;1.33;;
71869;SDS011;59739;47.696;11.746;2024-02-14T06:32:35;2.05;;;1.30;;
71869;SDS011;59739;47.696;11.746;2024-02-14T06:35:02;2.83;;;1.05;;
71869;SDS011;59739;47.696;11.746;2024-02-14T06:37:28;2.05;;;1.15;;
71869;SDS011;59739;47.696;11.746;2024-02-14T06:39:54;1.42;;;1.33;;
71869;SDS011;59739;47.696;11.746;2024-02-14T06:42:19;1.27;;;1.15;;
71869;SDS011;59739;47.696;11.746;2024-02-14T06:44:45;3.72;;;1.70;;
71869;SDS011;59739;47.696;11.746;2024-02-14T06:47:12;5.75;;;3.70;;
71869;SDS011;59739;47.696;11.746;2024-02-14T06:49:38;1.58;;;1.10;;
71869;SDS011;59739;47.696;11.746;2024-02-14T06:52:04;1.10;;;0.80;;
71869;SDS011;59739;47.696;11.746;2024-02-14T06:54:30;1.90;;;0.90;;
71869;SDS011;59739;47.696;11.746;2024-02-14T06:56:56;1.30;;;1.13;;
71869;SDS011;59739;47.696;11.746;2024-02-14T06:59:22;4.00;;;1.85;;
71869;SDS011;59739;47.696;11.746;2024-02-14T07:01:48;1.15;;;1.00;;
71869;SDS011;59739;47.696;11.746;2024-02-14T07:04:14;2.13;;;1.50;;
71869;SDS011;59739;47.696;11.746;2024-02-14T07:06:40;1.98;;;1.30;;
71869;SDS011;59739;47.696;11.746;2024-02-14T07:09:08;2.35;;;1.27;;
71869;SDS011;59739;47.696;11.746;2024-02-14T07:11:34;2.08;;;1.10;;
71869;SDS011;59739;47.696;11.746;2024-02-14T07:14:03;2.25;;;1.20;;
71869;SDS011;59739;47.696;11.746;2024-02-14T07:16:28;1.67;;;1.27;;
71869;SDS011;59739;47.696;11.746;2024-02-14T07:18:54;3.35;;;1.40;;
71869;SDS011;59739;47.696;11.746;2024-02-14T07:21:20;2.08;;;1.10;;
71869;SDS011;59739;47.696;11.746;2024-02-14T07:23:46;1.20;;;0.70;;
71869;SDS011;59739;47.696;11.746;2024-02-14T07:26:12;1.85;;;0.80;;
71869;SDS011;59739;47.696;11.746;2024-02-14T07:28:38;4.00;;;1.13;;
71869;SDS011;59739;47.696;11.746;2024-02-14T07:31:05;2.63;;;0.82;;
71869;SDS011;59739;47.696;11.746;2024-02-14T07:33:30;2.13;;;0.90;;
71869;SDS011;59739;47.696;11.746;2024-02-14T07:35:56;1.20;;;0.80;;
71869;SDS011;59739;47.696;11.746;2024-02-14T07:38:22;1.08;;;0.98;;
71869;SDS011;59739;47.696;11.746;2024-02-14T07:40:48;2.92;;;0.80;;
71869;SDS011;59739;47.696;11.746;2024-02-14T07:43:15;1.40;;;1.08;;
71869;SDS011;59739;47.696;11.746;2024-02-14T07:45:40;1.77;;;1.15;;
71869;SDS011;59739;47.696;11.746;2024-02-14T07:48:06;1.10;;;1.00;;
71869;SDS011;59739;47.696;11.746;2024-02-14T07:50:33;2.03;;;1.30;;
71869;SDS011;59739;47.696;11.746;2024-02-14T07:52:59;1.58;;;1.10;;
71869;SDS011;59739;47.696;11.746;2024-02-14T07:55:26;1.05;;;0.90;;
71869;SDS011;59739;47.696;11.746;2024-02-14T07:57:52;2.17;;;0.98;;
71869;SDS011;59739;47.696;11.746;2024-02-14T08:00:19;0.98;;;0.90;;
71869;SDS011;59739;47.696;11.746;2024-02-14T08:02:50;2.67;;;1.27;;
71869;SDS011;59739;47.696;11.746;2024-02-14T08:05:17;1.42;;;0.75;;
71869;SDS011;59739;47.696;11.746;2024-02-14T08:07:46;2.33;;;1.05;;
71869;SDS011;59739;47.696;11.746;2024-02-14T08:10:12;1.88;;;0.80;;
71869;SDS011;59739;47.696;11.746;2024-02-14T08:12:39;1.58;;;0.85;;
71869;SDS011;59739;47.696;11.746;2024-02-14T08:15:05;1.63;;;1.00;;
71869;SDS011;59739;47.696;11.746;2024-02-14T08:17:32;2.60;;;1.05;;
71869;SDS011;59739;47.696;11.746;2024-02-14T08:20:01;2.53;;;0.95;;
71869;SDS011;59739;47.696;11.746;2024-02-14T08:22:29;2.03;;;1.05;;
71869;SDS011;59739;47.696;11.746;2024-02-14T08:24:55;2.25;;;1.33;;
71869;SDS011;59739;47.696;11.746;2024-02-14T08:27:22;1.90;;;1.48;;
71869;SDS011;59739;47.696;11.746;2024-02-14T08:29:48;1.45;;;1.20;;
71869;SDS011;59739;47.696;11.746;2024-02-14T08:32:14;2.13;;;0.93;;
71869;SDS011;59739;47.696;11.746;2024-02-14T08:34:40;1.20;;;1.10;;
71869;SDS011;59739;47.696;11.746;2024-02-14T08:37:06;4.72;;;1.20;;
71869;SDS011;59739;47.696;11.746;2024-02-14T08:39:33;1.98;;;1.13;;
71869;SDS011;59739;47.696;11.746;2024-02-14T08:41:59;2.03;;;1.17;;
71869;SDS011;59739;47.696;11.746;2024-02-14T08:44:32;2.17;;;1.30;;
71869;SDS011;59739;47.696;11.746;2024-02-14T08:47:02;1.63;;;1.00;;
71869;SDS011;59739;47.696;11.746;2024-02-14T08:49:29;1.42;;;1.25;;
71869;SDS011;59739;47.696;11.746;2024-02-14T08:51:55;2.47;;;0.70;;
71869;SDS011;59739;47.696;11.746;2024-02-14T08:54:21;0.93;;;0.80;;
71869;SDS011;59739;47.696;11.746;2024-02-14T08:56:48;1.48;;;1.17;;
71869;SDS011;59739;47.696;11.746;2024-02-14T08:59:14;1.70;;;1.30;;
71869;SDS011;59739;47.696;11.746;2024-02-14T09:01:40;3.85;;;1.45;;
71869;SDS011;59739;47.696;11.746;2024-02-14T09:04:06;1.60;;;1.20;;
71869;SDS011;59739;47.696;11.746;2024-02-14T09:06:32;4.30;;;1.38;;
71869;SDS011;59739;47.696;11.746;2024-02-14T09:08:58;2.25;;;1.67;;
71869;SDS011;59739;47.696;11.746;2024-02-14T09:11:24;1.65;;;1.40;;
71869;SDS011;59739;47.696;11.746;2024-02-14T09:13:50;1.30;;;0.90;;
71869;SDS011;59739;47.696;11.746;2024-02-14T09:16:21;1.42;;;1.25;;
71869;SDS011;59739;47.696;11.746;2024-02-14T09:18:48;3.58;;;1.42;;
71869;SDS011;59739;47.696;11.746;2024-02-14T09:21:14;2.17;;;1.30;;
71869;SDS011;59739;47.696;11.746;2024-02-14T09:23:41;2.30;;;1.10;;
71869;SDS011;59739;47.696;11.746;2024-02-14T09:26:10;3.10;;;1.30;;
71869;SDS011;59739;47.696;11.746;2024-02-14T09:28:36;1.85;;;1.13;;
71869;SDS011;59739;47.696;11.746;2024-02-14T09:31:04;2.22;;;1.13;;
71869;SDS011;59739;47.696;11.746;2024-02-14T09:33:30;2.22;;;1.23;;
71869;SDS011;59739;47.696;11.746;2024-02-14T09:35:56;1.40;;;1.08;;
71869;SDS011;59739;47.696;11.746;2024-02-14T09:38:22;2.15;;;1.27;;
71869;SDS011;59739;47.696;11.746;2024-02-14T09:40:50;1.80;;;1.00;;
71869;SDS011;59739;47.696;11.746;2024-02-14T09:45:58;1.55;;;0.98;;
71869;SDS011;59739;47.696;11.746;2024-02-14T09:48:24;2.58;;;0.95;;
71869;SDS011;59739;47.696;11.746;2024-02-14T09:50:52;2.10;;;1.45;;
71869;SDS011;59739;47.696;11.746;2024-02-14T09:53:18;1.20;;;0.90;;
71869;SDS011;59739;47.696;11.746;2024-02-14T09:55:48;1.25;;;0.90;;
71869;SDS011;59739;47.696;11.746;2024-02-14T09:58:17;3.15;;;0.93;;
71869;SDS011;59739;47.696;11.746;2024-02-14T10:00:43;1.40;;;0.73;;
71869;SDS011;59739;47.696;11.746;2024-02-14T10:03:09;3.20;;;1.08;;
71869;SDS011;59739;47.696;11.746;2024-02-14T10:05:35;1.65;;;0.90;;
71869;SDS011;59739;47.696;11.746;2024-02-14T10:08:01;1.58;;;0.73;;
71869;SDS011;59739;47.696;11.746;2024-02-14T10:10:28;1.35;;;0.60;;
71869;SDS011;59739;47.696;11.746;2024-02-14T10:12:54;2.30;;;1.15;;
71869;SDS011;59739;47.696;11.746;2024-02-14T10:15:21;1.20;;;0.70;;
71869;SDS011;59739;47.696;11.746;2024-02-14T10:17:48;1.55;;;0.68;;
71869;SDS011;59739;47.696;11.746;2024-02-14T10:20:16;1.05;;;0.80;;
71869;SDS011;59739;47.696;11.746;2024-02-14T10:22:43;1.08;;;0.82;;
71869;SDS011;59739;47.696;11.746;2024-02-14T10:25:10;1.30;;;0.80;;
71869;SDS011;59739;47.696;11.746;2024-02-14T10:27:37;1.58;;;0.93;;
71869;SDS011;59739;47.696;11.746;2024-02-14T10:30:08;0.73;;;0.63;;
71869;SDS011;59739;47.696;11.746;2024-02-14T10:32:39;1.27;;;0.82;;
71869;SDS011;59739;47.696;11.746;2024-02-14T10:35:06;0.82;;;0.70;;
71869;SDS011;59739;47.696;11.746;2024-02-14T10:37:34;2.25;;;0.90;;
71869;SDS011;59739;47.696;11.746;2024-02-14T10:40:03;1.20;;;0.98;;
71869;SDS011;59739;47.696;11.746;2024-02-14T10:42:31;1.42;;;1.00;;
71869;SDS011;59739;47.696;11.746;2024-02-14T10:44:58;2.30;;;0.98;;
71869;SDS011;59739;47.696;11.746;2024-02-14T10:47:36;1.27;;;0.82;;
71869;SDS011;59739;47.696;11.746;2024-02-14T10:50:08;1.27;;;0.88;;
71869;SDS011;59739;47.696;11.746;2024-02-14T10:52:36;2.30;;;0.80;;
71869;SDS011;59739;47.696;11.746;2024-02-14T10:55:04;1.13;;;0.75;;
71869;SDS011;59739;47.696;11.746;2024-02-14T10:57:31;1.95;;;1.25;;
71869;SDS011;59739;47.696;11.746;2024-02-14T11:00:01;1.65;;;1.00;;
71869;SDS011;59739;47.696;11.746;2024-02-14T11:02:34;1.63;;;1.00;;
71869;SDS011;59739;47.696;11.746;2024-02-14T11:05:03;3.42;;;1.90;;
71869;SDS011;59739;47.696;11.746;2024-02-14T11:07:30;0.95;;;0.70;;
71869;SDS011;59739;47.696;11.746;2024-02-14T11:12:33;1.55;;;1.20;;
71869;SDS011;59739;47.696;11.746;2024-02-14T11:15:01;2.70;;;1.15;;
71869;SDS011;59739;47.696;11.746;2024-02-14T11:17:41;2.90;;;1.48;;
71869;SDS011;59739;47.696;11.746;2024-02-14T11:22:58;1.20;;;0.80;;
71869;SDS011;59739;47.696;11.746;2024-02-14T11:25:34;2.97;;;1.65;;
71869;SDS011;59739;47.696;11.746;2024-02-14T11:28:12;1.27;;;0.80;;
71869;SDS011;59739;47.696;11.746;2024-02-14T11:30:40;1.65;;;0.98;;
71869;SDS011;59739;47.696;11.746;2024-02-14T11:33:12;2.28;;;1.10;;
71869;SDS011;59739;47.696;11.746;2024-02-14T11:35:42;1.35;;;1.00;;
71869;SDS011;59739;47.696;11.746;2024-02-14T11:38:09;1.55;;;0.80;;
71869;SDS011;59739;47.696;11.746;2024-02-14T11:40:38;1.30;;;0.93;;
71869;SDS011;59739;47.696;11.746;2024-02-14T11:43:05;1.40;;;0.70;;
71869;SDS011;59739;47.696;11.746;2024-02-14T11:45:38;0.85;;;0.70;;
71869;SDS011;59739;47.696;11.746;2024-02-14T11:48:07;1.73;;;0.60;;
71869;SDS011;59739;47.696;11.746;2024-02-14T11:50:35;1.27;;;0.80;;
71869;SDS011;59739;47.696;11.746;2024-02-14T11:53:01;1.02;;;0.70;;
71869;SDS011;59739;47.696;11.746;2024-02-14T11:55:29;2.30;;;1.08;;
71869;SDS011;59739;47.696;11.746;2024-02-14T11:57:58;2.00;;;1.13;;
71869;SDS011;59739;47.696;11.746;2024-02-14T12:00:23;2.47;;;0.90;;
71869;SDS011;59739;47.696;11.746;2024-02-14T12:02:50;2.13;;;0.90;;
71869;SDS011;59739;47.696;11.746;2024-02-14T12:05:17;1.23;;;0.90;;
71869;SDS011;59739;47.696;11.746;2024-02-14T12:07:44;3.08;;;0.80;;
71869;SDS011;59739;47.696;11.746;2024-02-14T12:10:10;2.22;;;0.80;;
71869;SDS011;59739;47.696;11.746;2024-02-14T12:12:38;1.02;;;0.80;;
71869;SDS011;59739;47.696;11.746;2024-02-14T12:15:04;2.53;;;0.68;;
71869;SDS011;59739;47.696;11.746;2024-02-14T12:17:31;2.95;;;0.80;;
71869;SDS011;59739;47.696;11.746;2024-02-14T12:20:08;1.20;;;0.90;;
71869;SDS011;59739;47.696;11.746;2024-02-14T12:22:36;1.15;;;0.80;;
71869;SDS011;59739;47.696;11.746;2024-02-14T12:25:05;0.60;;;0.60;;
71869;SDS011;59739;47.696;11.746;2024-02-14T12:27:36;0.88;;;0.40;;
71869;SDS011;59739;47.696;11.746;2024-02-14T12:30:05;0.93;;;0.75;;
71869;SDS011;59739;47.696;11.746;2024-02-14T12:32:32;0.73;;;0.47;;
71869;SDS011;59739;47.696;11.746;2024-02-14T12:34:59;0.90;;;0.47;;
71869;SDS011;59739;47.696;11.746;2024-02-14T12:37:25;0.93;;;0.47;;
71869;SDS011;59739;47.696;11.746;2024-02-14T12:39:51;0.98;;;0.40;;
71869;SDS011;59739;47.696;11.746;2024-02-14T12:42:18;0.55;;;0.40;;
71869;SDS011;59739;47.696;11.746;2024-02-14T12:44:50;0.93;;;0.35;;
71869;SDS011;59739;47.696;11.746;2024-02-14T12:47:19;1.15;;;0.40;;
71869;SDS011;59739;47.696;11.746;2024-02-14T12:49:47;0.60;;;0.38;;
71869;SDS011;59739;47.696;11.746;2024-02-14T12:52:14;1.17;;;0.50;;
71869;SDS011;59739;47.696;11.746;2024-02-14T12:54:41;2.42;;;1.30;;
71869;SDS011;59739;47.696;11.746;2024-02-14T12:57:08;1.33;;;0.82;;
71869;SDS011;59739;47.696;11.746;2024-02-14T12:59:33;2.25;;;1.20;;
71869;SDS011;59739;47.696;11.746;2024-02-14T13:01:59;1.67;;;1.10;;
71869;SDS011;59739;47.696;11.746;2024-02-14T13:04:25;1.00;;;0.70;;
71869;SDS011;59739;47.696;11.746;2024-02-14T13:06:51;1.35;;;0.60;;
71869;SDS011;59739;47.696;11.746;2024-02-14T13:09:19;1.85;;;0.80;;
71869;SDS011;59739;47.696;11.746;2024-02-14T13:11:45;1.13;;;0.70;;
71869;SDS011;59739;47.696;11.746;2024-02-14T13:14:10;1.17;;;0.70;;
71869;SDS011;59739;47.696;11.746;2024-02-14T13:16:36;1.80;;;0.80;;
71869;SDS011;59739;47.696;11.746;2024-02-14T13:19:02;1.13;;;0.60;;
71869;SDS011;59739;47.696;11.746;2024-02-14T13:21:30;0.93;;;0.60;;
71869;SDS011;59739;47.696;11.746;2024-02-14T13:23:56;0.50;;;0.50;;
71869;SDS011;59739;47.696;11.746;2024-02-14T13:26:22;1.48;;;0.88;;
71869;SDS011;59739;47.696;11.746;2024-02-14T13:28:49;1.08;;;0.60;;
71869;SDS011;59739;47.696;11.746;2024-02-14T13:31:15;0.82;;;0.60;;
71869;SDS011;59739;47.696;11.746;2024-02-14T13:33:42;1.23;;;0.80;;
71869;SDS011;59739;47.696;11.746;2024-02-14T13:36:07;1.00;;;0.60;;
71869;SDS011;59739;47.696;11.746;2024-02-14T13:38:34;1.45;;;0.82;;
71869;SDS011;59739;47.696;11.746;2024-02-14T13:41:00;2.03;;;1.30;;
71869;SDS011;59739;47.696;11.746;2024-02-14T13:43:26;1.80;;;1.30;;
71869;SDS011;59739;47.696;11.746;2024-02-14T13:45:52;1.88;;;1.25;;
71869;SDS011;59739;47.696;11.746;2024-02-14T13:48:19;1.63;;;0.88;;
71869;SDS011;59739;47.696;11.746;2024-02-14T13:50:45;1.38;;;0.90;;
71869;SDS011;59739;47.696;11.746;2024-02-14T13:53:11;1.85;;;1.05;;
71869;SDS011;59739;47.696;11.746;2024-02-14T13:55:37;1.48;;;1.05;;
71869;SDS011;59739;47.696;11.746;2024-02-14T13:58:04;3.35;;;1.23;;
71869;SDS011;59739;47.696;11.746;2024-02-14T14:00:30;2.08;;;1.30;;
71869;SDS011;59739;47.696;11.746;2024-02-14T14:02:57;1.48;;;0.82;;
71869;SDS011;59739;47.696;11.746;2024-02-14T14:05:24;2.90;;;1.40;;
71869;SDS011;59739;47.696;11.746;2024-02-14T14:07:51;2.40;;;1.10;;
71869;SDS011;59739;47.696;11.746;2024-02-14T14:10:17;2.90;;;1.23;;
71869;SDS011;59739;47.696;11.746;2024-02-14T14:12:43;1.08;;;0.82;;
71869;SDS011;59739;47.696;11.746;2024-02-14T14:15:09;1.73;;;0.52;;
71869;SDS011;59739;47.696;11.746;2024-02-14T14:17:35;1.00;;;0.90;;
71869;SDS011;59739;47.696;11.746;2024-02-14T14:20:01;0.85;;;0.70;;
71869;SDS011;59739;47.696;11.746;2024-02-14T14:22:28;1.98;;;0.65;;
71869;SDS011;59739;47.696;11.746;2024-02-14T14:24:57;0.70;;;0.60;;
71869;SDS011;59739;47.696;11.746;2024-02-14T14:27:23;1.33;;;0.40;;
71869;SDS011;59739;47.696;11.746;2024-02-14T14:29:49;0.82;;;0.60;;
71869;SDS011;59739;47.696;11.746;2024-02-14T14:32:15;1.25;;;0.60;;
71869;SDS011;59739;47.696;11.746;2024-02-14T14:34:44;0.55;;;0.45;;
71869;SDS011;59739;47.696;11.746;2024-02-14T14:37:10;0.47;;;0.40;;
71869;SDS011;59739;47.696;11.746;2024-02-14T14:39:40;1.73;;;0.82;;